^^
Station Historical Data
 
Daily Summary for June 27, 2017 Units:  English    Metric   Both
« Previous Day
Next Day »
Daily Weekly Monthly Yearly Custom
  Current: High: Low: Average:
Temperature: 65.9 °F 66.5 °F 46.1 °F 54.3 °F
Dew Point: 56.2 °F 56.8 °F 44.2 °F 50.8 °F
Humidity: 71% 96% 70% 89%
Wind Speed: 0.0mph 1.0mph 0.0mph 0mph
Wind Gust: 0.0mph 10.0mph - -
WindCalm - - ESE
Pressure: 30.02 in 30.07 in 30.00 in -
Precipitation: 0.00 in      
Historical Graphs
 
 
Tabular Data for June 27, 2017
Time Temperature Dew Point Pressure Wind Wind Speed Wind Gust Humidity Rainfall Rate (Hourly) solar Conditions
00:00 52.9 °F 49.7 °F 30.00 in Calm     89% 0.00 in 0.0 W/m2 CLR
00:05 52.9 °F 49.7 °F 30.00 in Calm   2.0 mph 89% 0.00 in 0.0 W/m2 CLR
00:10 52.8 °F 49.7 °F 30.00 in Calm   3.0 mph 89% 0.00 in 0.0 W/m2 CLR
00:15 52.8 °F 49.6 °F 30.00 in Calm   2.0 mph 89% 0.00 in 0.0 W/m2 CLR
00:20 52.7 °F 49.5 °F 30.00 in Calm   6.0 mph 89% 0.00 in 0.0 W/m2 CLR
00:25 52.7 °F 49.5 °F 30.00 in Calm   7.0 mph 89% 0.00 in 0.0 W/m2 CLR
00:29 52.6 °F 49.5 °F 30.00 in WNW 1.0 mph 5.0 mph 89% 0.00 in 0.0 W/m2 CLR
00:35 52.6 °F 49.4 °F 30.00 in Calm   10.0 mph 89% 0.00 in 0.0 W/m2 CLR
00:40 52.6 °F 49.8 °F 30.00 in Calm   10.0 mph 90% 0.00 in 0.0 W/m2 CLR
00:44 52.6 °F 49.8 °F 30.01 in Calm   5.0 mph 90% 0.00 in 0.0 W/m2 CLR
00:50 52.5 °F 49.7 °F 30.01 in Calm   1.0 mph 90% 0.00 in 0.0 W/m2 CLR
00:55 52.4 °F 49.6 °F 30.01 in Calm   4.0 mph 90% 0.00 in 0.0 W/m2 CLR
01:00 52.2 °F 49.4 °F 30.01 in Calm     90% 0.00 in 0.0 W/m2 CLR
01:04 51.9 °F 49.1 °F 30.02 in Calm     90% 0.00 in 0.0 W/m2 CLR
01:10 51.7 °F 48.9 °F 30.02 in Calm     90% 0.00 in 0.0 W/m2 CLR
01:15 51.4 °F 48.6 °F 30.02 in Calm     90% 0.00 in 0.0 W/m2 CLR
01:20 51.2 °F 48.4 °F 30.02 in Calm     90% 0.00 in 0.0 W/m2 CLR
01:25 51.2 °F 48.7 °F 30.02 in Calm     91% 0.00 in 0.0 W/m2 CLR
01:29 51.1 °F 48.6 °F 30.01 in Calm     91% 0.00 in 0.0 W/m2 CLR
01:35 50.9 °F 48.3 °F 30.02 in Calm     91% 0.00 in 0.0 W/m2 CLR
01:40 50.6 °F 48.1 °F 30.02 in Calm     91% 0.00 in 0.0 W/m2 CLR
01:45 50.3 °F 47.5 °F 30.02 in Calm     90% 0.00 in 0.0 W/m2 CLR
01:49 49.9 °F 47.1 °F 30.02 in Calm     90% 0.00 in 0.0 W/m2 CLR
01:54 49.5 °F 46.7 °F 30.02 in Calm     90% 0.00 in 0.0 W/m2 CLR
02:00 49.5 °F 47.0 °F 30.02 in Calm     91% 0.00 in 0.0 W/m2 CLR
02:04 49.5 °F 47.0 °F 30.02 in Calm     91% 0.00 in 0.0 W/m2 CLR
02:09 49.2 °F 46.7 °F 30.02 in Calm     91% 0.00 in 0.0 W/m2 CLR
02:14 49.0 °F 46.8 °F 30.02 in Calm     92% 0.00 in 0.0 W/m2 CLR
02:20 48.8 °F 46.6 °F 30.02 in Calm     92% 0.00 in 0.0 W/m2 CLR
02:30 48.5 °F 46.3 °F 30.02 in Calm     92% 0.00 in 0.0 W/m2 CLR
02:34 48.2 °F 46.0 °F 30.03 in Calm     92% 0.00 in 0.0 W/m2 CLR
02:40 47.9 °F 45.7 °F 30.03 in Calm     92% 0.00 in 0.0 W/m2 CLR
02:50 47.9 °F 46.0 °F 30.03 in Calm     93% 0.00 in 0.0 W/m2 CLR
02:59 47.5 °F 45.3 °F 30.03 in Calm     92% 0.00 in 0.0 W/m2 CLR
03:05 47.1 °F 44.9 °F 30.03 in Calm     92% 0.00 in 0.0 W/m2 CLR
03:10 46.6 °F 44.4 °F 30.03 in Calm     92% 0.00 in 0.0 W/m2 CLR
03:15 46.2 °F 44.3 °F 30.03 in Calm     93% 0.00 in 0.0 W/m2 CLR
03:20 46.4 °F 44.5 °F 30.03 in Calm     93% 0.00 in 0.0 W/m2 CLR
03:25 46.3 °F 44.4 °F 30.04 in Calm     93% 0.00 in 0.0 W/m2 CLR
03:30 46.1 °F 44.2 °F 30.04 in Calm     93% 0.00 in 0.0 W/m2 CLR
03:35 46.4 °F 44.8 °F 30.04 in Calm     94% 0.00 in 0.0 W/m2 CLR
03:40 46.3 °F 44.7 °F 30.04 in Calm     94% 0.00 in 0.0 W/m2 CLR
03:50 46.6 °F 45.0 °F 30.04 in Calm     94% 0.00 in 0.0 W/m2 CLR
03:55 46.7 °F 45.0 °F 30.04 in Calm     94% 0.00 in 0.0 W/m2 CLR
04:00 46.5 °F 44.9 °F 30.04 in Calm     94% 0.00 in 0.0 W/m2 CLR
04:05 46.5 °F 44.9 °F 30.04 in Calm     94% 0.00 in 0.0 W/m2 CLR
04:10 46.6 °F 44.9 °F 30.04 in Calm     94% 0.00 in 0.0 W/m2 CLR
04:15 46.5 °F 44.9 °F 30.04 in Calm     94% 0.00 in 0.0 W/m2 CLR
04:20 46.6 °F 45.0 °F 30.05 in Calm     94% 0.00 in 0.0 W/m2 CLR
04:25 46.6 °F 45.0 °F 30.05 in Calm     94% 0.00 in 0.0 W/m2 CLR
04:30 46.6 °F 45.0 °F 30.05 in Calm     94% 0.00 in 0.0 W/m2 CLR
04:35 46.8 °F 45.4 °F 30.05 in Calm     95% 0.00 in 0.0 W/m2 CLR
04:40 46.8 °F 45.4 °F 30.05 in Calm     95% 0.00 in 0.0 W/m2 CLR
04:45 46.8 °F 45.4 °F 30.05 in Calm     95% 0.00 in 0.0 W/m2 CLR
04:50 46.9 °F 45.5 °F 30.05 in Calm     95% 0.00 in 0.0 W/m2 CLR
04:54 46.9 °F 45.5 °F 30.05 in Calm     95% 0.00 in 0.0 W/m2 CLR
04:59 46.8 °F 45.4 °F 30.05 in Calm     95% 0.00 in 0.0 W/m2 OVC
05:05 46.8 °F 45.4 °F 30.05 in Calm     95% 0.00 in 0.0 W/m2 OVC
05:10 46.8 °F 45.5 °F 30.05 in Calm     95% 0.00 in 0.0 W/m2 OVC
05:15 46.8 °F 45.4 °F 30.05 in Calm     95% 0.00 in 0.0 W/m2 OVC
05:20 46.8 °F 45.4 °F 30.05 in Calm     95% 0.00 in 0.0 W/m2 OVC
05:25 46.8 °F 45.5 °F 30.05 in Calm     95% 0.00 in 5.0 W/m2 FEW
05:30 46.9 °F 45.5 °F 30.05 in Calm     95% 0.00 in 9.0 W/m2 FEW
05:35 46.9 °F 45.5 °F 30.05 in Calm     95% 0.00 in 12.0 W/m2 SCT
05:40 47.0 °F 45.6 °F 30.05 in Calm     95% 0.00 in 16.0 W/m2 SCT
05:45 47.1 °F 45.7 °F 30.05 in Calm     95% 0.00 in 16.0 W/m2 BKN
05:50 47.1 °F 45.7 °F 30.05 in Calm     95% 0.00 in 21.0 W/m2 BKN
05:55 47.2 °F 45.8 °F 30.05 in Calm     95% 0.00 in 21.0 W/m2 BKN
06:00 47.2 °F 45.8 °F 30.05 in Calm     95% 0.00 in 25.0 W/m2 BKN
06:05 47.3 °F 45.9 °F 30.05 in Calm     95% 0.00 in 28.0 W/m2 BKN
06:10 47.4 °F 46.0 °F 30.05 in Calm     95% 0.00 in 26.0 W/m2 OVC
06:15 47.8 °F 46.7 °F 30.05 in Calm     96% 0.00 in 35.0 W/m2 BKN
06:19 48.3 °F 47.2 °F 30.05 in Calm     96% 0.00 in 47.0 W/m2 BKN
06:25 48.7 °F 47.6 °F 30.05 in Calm     96% 0.00 in 47.0 W/m2 BKN
06:30 49.3 °F 48.2 °F 30.05 in Calm     96% 0.00 in 44.0 W/m2 BKN
06:34 49.5 °F 48.5 °F 30.05 in Calm     96% 0.00 in 60.0 W/m2 BKN
06:40 50.0 °F 48.9 °F 30.05 in Calm     96% 0.00 in 47.0 W/m2 OVC
06:44 50.4 °F 49.3 °F 30.05 in Calm     96% 0.00 in 74.0 W/m2 BKN
06:50 51.0 °F 49.9 °F 30.06 in Calm     96% 0.00 in 84.0 W/m2 BKN
06:55 51.5 °F 50.3 °F 30.05 in Calm     96% 0.00 in 72.0 W/m2 BKN
06:59 52.0 °F 50.8 °F 30.05 in Calm     96% 0.00 in 93.0 W/m2 BKN
07:05 52.2 °F 51.1 °F 30.05 in Calm     96% 0.00 in 69.0 W/m2 OVC
07:10 52.4 °F 51.3 °F 30.05 in Calm     96% 0.00 in 47.0 W/m2 OVC
07:15 52.6 °F 51.2 °F 30.05 in Calm     95% 0.00 in 39.0 W/m2 OVC
07:19 52.7 °F 51.3 °F 30.06 in Calm     95% 0.00 in 58.0 W/m2 OVC
07:25 53.0 °F 51.6 °F 30.06 in Calm     95% 0.00 in 81.0 W/m2 OVC
07:35 53.6 °F 51.9 °F 30.06 in Calm     94% 0.00 in 102.0 W/m2 OVC
07:40 53.8 °F 52.1 °F 30.06 in Calm     94% 0.00 in 100.0 W/m2 OVC
07:45 54.0 °F 52.3 °F 30.06 in Calm     94% 0.00 in 125.0 W/m2 BKN
07:49 54.1 °F 52.4 °F 30.06 in Calm     94% 0.00 in 127.0 W/m2 BKN
07:55 53.9 °F 51.9 °F 30.06 in Calm     93% 0.00 in 125.0 W/m2 BKN
08:05 54.0 °F 51.7 °F 30.06 in Calm     92% 0.00 in 139.0 W/m2 BKN
08:10 54.2 °F 51.9 °F 30.06 in Calm     92% 0.00 in 134.0 W/m2 OVC
08:15 54.3 °F 51.7 °F 30.06 in Calm     91% 0.00 in 116.0 W/m2 OVC
08:20 54.4 °F 51.8 °F 30.06 in Calm     91% 0.00 in 134.0 W/m2 OVC
08:25 54.4 °F 51.8 °F 30.06 in Calm     91% 0.00 in 74.0 W/m2 OVC
08:30 54.5 °F 51.9 °F 30.06 in Calm     91% 0.00 in 148.0 W/m2 OVC
08:35 54.5 °F 51.6 °F 30.06 in Calm     90% 0.00 in 192.0 W/m2 BKN
08:40 54.7 °F 51.8 °F 30.06 in Calm     90% 0.00 in 209.0 W/m2 BKN
08:45 54.7 °F 51.5 °F 30.07 in Calm     89% 0.00 in 204.0 W/m2 BKN
08:50 54.9 °F 51.7 °F 30.07 in Calm     89% 0.00 in 151.0 W/m2 OVC
08:55 55.1 °F 52.2 °F 30.06 in Calm     90% 0.00 in 211.0 W/m2 BKN
08:59 55.3 °F 52.1 °F 30.07 in Calm     89% 0.00 in 193.0 W/m2 BKN
09:05 55.4 °F 52.2 °F 30.07 in Calm     89% 0.00 in 216.0 W/m2 BKN
09:10 55.2 °F 51.7 °F 30.07 in Calm     88% 0.00 in 190.0 W/m2 OVC
09:14 55.2 °F 52.0 °F 30.07 in Calm     89% 0.00 in 230.0 W/m2 BKN
09:19 55.2 °F 52.0 °F 30.07 in Calm   1.0 mph 89% 0.00 in 111.0 W/m2 OVC
09:25 55.1 °F 51.9 °F 30.07 in Calm     89% 0.00 in 146.0 W/m2 OVC
09:29 54.9 °F 51.7 °F 30.07 in Calm     89% 0.00 in 155.0 W/m2 OVC
09:35 55.0 °F 52.1 °F 30.07 in Calm     90% 0.00 in 156.0 W/m2 OVC
09:40 55.0 °F 52.1 °F 30.07 in Calm     90% 0.00 in 134.0 W/m2 OVC
09:45 55.0 °F 52.1 °F 30.07 in Calm     90% 0.00 in 186.0 W/m2 OVC
09:49 55.1 °F 52.5 °F 30.07 in Calm     91% 0.00 in 188.0 W/m2 OVC
09:55 55.2 °F 52.6 °F 30.07 in Calm     91% 0.00 in 167.0 W/m2 OVC
10:00 55.2 °F 52.6 °F 30.07 in Calm     91% 0.00 in 195.0 W/m2 OVC
10:05 55.1 °F 52.5 °F 30.07 in Calm     91% 0.00 in 156.0 W/m2 OVC
10:10 55.1 °F 52.5 °F 30.07 in Calm     91% 0.00 in 98.0 W/m2 OVC
10:14 55.3 °F 53.0 °F 30.07 in Calm     92% 0.00 in 178.0 W/m2 OVC
10:20 55.5 °F 53.2 °F 30.07 in Calm     92% 0.00 in 192.0 W/m2 OVC
10:25 55.7 °F 53.4 °F 30.06 in Calm     92% 0.00 in 211.0 W/m2 OVC
10:30 55.7 °F 53.1 °F 30.07 in Calm     91% 0.00 in 223.0 W/m2 OVC
10:35 55.9 °F 53.3 °F 30.06 in Calm     91% 0.00 in 230.0 W/m2 OVC
10:40 56.0 °F 53.4 °F 30.06 in Calm     91% 0.00 in 294.0 W/m2 BKN
10:45 56.2 °F 53.6 °F 30.06 in Calm     91% 0.00 in 292.0 W/m2 BKN
10:50 56.8 °F 54.2 °F 30.06 in Calm     91% 0.00 in 299.0 W/m2 BKN
10:55 57.1 °F 54.2 °F 30.06 in Calm     90% 0.00 in 244.0 W/m2 OVC
10:59 57.3 °F 54.4 °F 30.06 in Calm   2.0 mph 90% 0.00 in 229.0 W/m2 OVC
11:04 57.5 °F 54.3 °F 30.06 in Calm     89% 0.00 in 251.0 W/m2 OVC
11:10 57.8 °F 54.2 °F 30.06 in Calm     88% 0.00 in 292.0 W/m2 OVC
11:14 57.9 °F 54.4 °F 30.06 in Calm     88% 0.00 in 322.0 W/m2 BKN
11:19 58.3 °F 54.8 °F 30.06 in Calm     88% 0.00 in 353.0 W/m2 BKN
11:25 58.3 °F 54.5 °F 30.06 in Calm     87% 0.00 in 443.0 W/m2 SCT
11:30 58.5 °F 54.7 °F 30.06 in Calm     87% 0.00 in 707.0 W/m2 FEW
11:34 58.9 °F 54.7 °F 30.06 in Calm     86% 0.00 in 533.0 W/m2 SCT
11:40 59.7 °F 55.5 °F 30.06 in Calm     86% 0.00 in 548.0 W/m2 SCT
11:50 59.7 °F 54.9 °F 30.06 in Calm     84% 0.00 in 443.0 W/m2 BKN
11:55 59.9 °F 55.4 °F 30.06 in Calm     85% 0.00 in 420.0 W/m2 BKN
12:00 59.8 °F 55.0 °F 30.06 in Calm     84% 0.00 in 459.0 W/m2 SCT
12:04 60.1 °F 55.3 °F 30.06 in Calm   1.0 mph 84% 0.00 in 580.0 W/m2 SCT
12:10 60.7 °F 56.2 °F 30.06 in Calm     85% 0.00 in 580.0 W/m2 SCT
12:15 61.3 °F 56.4 °F 30.06 in Calm     84% 0.00 in 633.0 W/m2 SCT
12:20 61.4 °F 56.2 °F 30.06 in Calm   1.0 mph 83% 0.00 in 476.0 W/m2 SCT
12:24 61.3 °F 55.8 °F 30.06 in Calm   2.0 mph 82% 0.00 in 649.0 W/m2 SCT
12:30 61.3 °F 55.7 °F 30.06 in Calm   1.0 mph 82% 0.00 in 638.0 W/m2 SCT
12:34 61.4 °F 55.9 °F 30.06 in Calm   1.0 mph 82% 0.00 in 534.0 W/m2 SCT
12:40 61.2 °F 55.4 °F 30.06 in Calm     81% 0.00 in 534.0 W/m2 SCT
12:45 61.4 °F 55.5 °F 30.06 in Calm   1.0 mph 81% 0.00 in 471.0 W/m2 BKN
12:50 61.4 °F 55.9 °F 30.06 in Calm   9.0 mph 82% 0.00 in 954.0 W/m2 CLR
12:55 62.0 °F 56.1 °F 30.06 in NE 1.0 mph 10.0 mph 81% 0.00 in 909.0 W/m2 CLR
13:00 62.0 °F 55.7 °F 30.06 in Calm   1.0 mph 80% 0.00 in 891.0 W/m2 CLR
13:05 62.4 °F 56.2 °F 30.05 in Calm   1.0 mph 80% 0.00 in 893.0 W/m2 CLR
13:10 62.6 °F 56.0 °F 30.05 in Calm   1.0 mph 79% 0.00 in 895.0 W/m2 CLR
13:14 62.9 °F 56.3 °F 30.05 in Calm     79% 0.00 in 889.0 W/m2 CLR
13:19 62.7 °F 55.4 °F 30.05 in Calm   1.0 mph 77% 0.00 in 888.0 W/m2 CLR
13:25 62.7 °F 55.7 °F 30.05 in Calm     78% 0.00 in 888.0 W/m2 CLR
13:30 63.1 °F 55.8 °F 30.05 in Calm     77% 0.00 in 888.0 W/m2 CLR
13:35 63.5 °F 55.8 °F 30.04 in Calm   3.0 mph 76% 0.00 in 886.0 W/m2 CLR
13:40 63.9 °F 56.5 °F 30.05 in Calm   8.0 mph 77% 0.00 in 888.0 W/m2 CLR
13:45 63.5 °F 55.8 °F 30.04 in Calm   2.0 mph 76% 0.00 in 889.0 W/m2 CLR
13:49 63.7 °F 56.0 °F 30.05 in NE 1.0 mph 9.0 mph 76% 0.00 in 902.0 W/m2 CLR
13:55 63.7 °F 55.7 °F 30.04 in Calm   2.0 mph 75% 0.00 in 837.0 W/m2 CLR
13:59 63.9 °F 55.8 °F 30.04 in Calm   3.0 mph 75% 0.00 in 817.0 W/m2 CLR
14:04 64.1 °F 56.0 °F 30.04 in Calm   4.0 mph 75% 0.00 in 891.0 W/m2 CLR
14:10 64.2 °F 56.1 °F 30.04 in NE 1.0 mph 5.0 mph 75% 0.00 in 882.0 W/m2 CLR
14:14 64.0 °F 55.9 °F 30.04 in Calm   1.0 mph 75% 0.00 in 877.0 W/m2 CLR
14:20 64.7 °F 56.6 °F 30.04 in Calm     75% 0.00 in 870.0 W/m2 CLR
14:25 64.5 °F 55.7 °F 30.03 in Calm   10.0 mph 73% 0.00 in 868.0 W/m2 CLR
14:29 64.6 °F 55.8 °F 30.03 in Calm   2.0 mph 73% 0.00 in 860.0 W/m2 CLR
14:35 65.0 °F 56.5 °F 30.03 in Calm   4.0 mph 74% 0.00 in 868.0 W/m2 CLR
14:40 65.1 °F 56.2 °F 30.03 in Calm   2.0 mph 73% 0.00 in 858.0 W/m2 CLR
14:45 65.1 °F 55.4 °F 30.03 in Calm   1.0 mph 71% 0.00 in 772.0 W/m2 CLR
14:50 65.2 °F 56.3 °F 30.03 in Calm   1.0 mph 73% 0.00 in 865.0 W/m2 CLR
14:54 65.6 °F 56.7 °F 30.03 in Calm   5.0 mph 73% 0.00 in 696.0 W/m2 FEW
15:00 65.7 °F 56.4 °F 30.03 in Calm     72% 0.00 in 805.0 W/m2 CLR
15:05 66.3 °F 56.6 °F 30.02 in Calm     71% 0.00 in 847.0 W/m2 CLR
15:10 66.5 °F 56.8 °F 30.02 in Calm     71% 0.00 in 828.0 W/m2 CLR
15:15 65.9 °F 55.9 °F 30.02 in Calm   1.0 mph 70% 0.00 in 823.0 W/m2 CLR
15:20 65.9 °F 56.2 °F 30.02 in Calm     71% 0.00 in 805.0 W/m2 CLR
Donkey Whisperer Farm
Compliments of Weather Underground - 2.5 mb